sensor_id;sensor_type;location;lat;lon;timestamp;P1;durP1;ratioP1;P2;durP2;ratioP2
61460;SDS011;47325;50.506;4.472;2023-04-03T00:02:42;5.60;;;4.70;;
61460;SDS011;47325;50.506;4.472;2023-04-03T00:08:27;5.70;;;4.70;;
61460;SDS011;47325;50.506;4.472;2023-04-03T00:14:11;6.40;;;4.80;;
61460;SDS011;47325;50.506;4.472;2023-04-03T00:19:55;6.50;;;4.90;;
61460;SDS011;47325;50.506;4.472;2023-04-03T00:25:39;5.30;;;4.50;;
61460;SDS011;47325;50.506;4.472;2023-04-03T00:31:23;6.00;;;4.60;;
61460;SDS011;47325;50.506;4.472;2023-04-03T00:37:08;6.40;;;4.60;;
61460;SDS011;47325;50.506;4.472;2023-04-03T00:42:54;6.00;;;4.70;;
61460;SDS011;47325;50.506;4.472;2023-04-03T00:48:39;6.70;;;4.80;;
61460;SDS011;47325;50.506;4.472;2023-04-03T00:54:24;6.00;;;4.60;;
61460;SDS011;47325;50.506;4.472;2023-04-03T01:00:10;6.30;;;4.60;;
61460;SDS011;47325;50.506;4.472;2023-04-03T01:05:54;6.50;;;4.70;;
61460;SDS011;47325;50.506;4.472;2023-04-03T01:11:38;5.70;;;4.80;;
61460;SDS011;47325;50.506;4.472;2023-04-03T01:17:30;6.60;;;4.80;;
61460;SDS011;47325;50.506;4.472;2023-04-03T01:23:17;6.30;;;4.60;;
61460;SDS011;47325;50.506;4.472;2023-04-03T01:29:06;7.10;;;4.80;;
61460;SDS011;47325;50.506;4.472;2023-04-03T01:34:50;5.90;;;4.50;;
61460;SDS011;47325;50.506;4.472;2023-04-03T01:40:34;6.10;;;4.50;;
61460;SDS011;47325;50.506;4.472;2023-04-03T01:46:19;5.40;;;4.60;;
61460;SDS011;47325;50.506;4.472;2023-04-03T01:52:04;7.20;;;4.60;;
61460;SDS011;47325;50.506;4.472;2023-04-03T01:57:48;5.20;;;4.30;;
61460;SDS011;47325;50.506;4.472;2023-04-03T02:03:32;6.30;;;4.60;;
61460;SDS011;47325;50.506;4.472;2023-04-03T02:09:16;7.30;;;5.00;;
61460;SDS011;47325;50.506;4.472;2023-04-03T02:15:00;6.70;;;4.80;;
61460;SDS011;47325;50.506;4.472;2023-04-03T02:20:45;6.50;;;4.80;;
61460;SDS011;47325;50.506;4.472;2023-04-03T02:26:30;6.20;;;4.80;;
61460;SDS011;47325;50.506;4.472;2023-04-03T02:32:13;5.40;;;4.50;;
61460;SDS011;47325;50.506;4.472;2023-04-03T02:37:57;5.30;;;4.30;;
61460;SDS011;47325;50.506;4.472;2023-04-03T02:43:41;6.20;;;4.20;;
61460;SDS011;47325;50.506;4.472;2023-04-03T02:49:25;5.00;;;4.20;;
61460;SDS011;47325;50.506;4.472;2023-04-03T02:55:12;5.20;;;4.30;;
61460;SDS011;47325;50.506;4.472;2023-04-03T03:00:57;5.80;;;4.50;;
61460;SDS011;47325;50.506;4.472;2023-04-03T03:06:41;5.50;;;4.20;;
61460;SDS011;47325;50.506;4.472;2023-04-03T03:12:27;6.30;;;4.20;;
61460;SDS011;47325;50.506;4.472;2023-04-03T03:18:14;6.00;;;4.50;;
61460;SDS011;47325;50.506;4.472;2023-04-03T03:23:58;6.20;;;4.30;;
61460;SDS011;47325;50.506;4.472;2023-04-03T03:29:42;6.20;;;4.40;;
61460;SDS011;47325;50.506;4.472;2023-04-03T03:35:26;6.60;;;5.00;;
61460;SDS011;47325;50.506;4.472;2023-04-03T03:41:11;5.90;;;4.50;;
61460;SDS011;47325;50.506;4.472;2023-04-03T03:46:56;5.80;;;4.60;;
61460;SDS011;47325;50.506;4.472;2023-04-03T03:52:41;4.90;;;4.40;;
61460;SDS011;47325;50.506;4.472;2023-04-03T03:58:26;5.10;;;4.00;;
61460;SDS011;47325;50.506;4.472;2023-04-03T04:04:11;4.80;;;4.20;;
61460;SDS011;47325;50.506;4.472;2023-04-03T04:09:56;5.40;;;4.30;;
61460;SDS011;47325;50.506;4.472;2023-04-03T04:15:41;5.80;;;4.40;;
61460;SDS011;47325;50.506;4.472;2023-04-03T04:21:26;5.20;;;4.10;;
61460;SDS011;47325;50.506;4.472;2023-04-03T04:27:11;6.10;;;4.30;;
61460;SDS011;47325;50.506;4.472;2023-04-03T04:32:56;5.10;;;4.40;;
61460;SDS011;47325;50.506;4.472;2023-04-03T04:38:41;7.10;;;4.20;;
61460;SDS011;47325;50.506;4.472;2023-04-03T04:44:26;4.80;;;4.10;;
61460;SDS011;47325;50.506;4.472;2023-04-03T04:50:12;6.00;;;4.50;;
61460;SDS011;47325;50.506;4.472;2023-04-03T04:55:57;6.00;;;4.40;;
61460;SDS011;47325;50.506;4.472;2023-04-03T05:01:41;5.10;;;4.20;;
61460;SDS011;47325;50.506;4.472;2023-04-03T05:07:26;5.80;;;4.20;;
61460;SDS011;47325;50.506;4.472;2023-04-03T05:13:10;5.30;;;4.30;;
61460;SDS011;47325;50.506;4.472;2023-04-03T05:18:53;5.30;;;4.30;;
61460;SDS011;47325;50.506;4.472;2023-04-03T05:24:37;6.00;;;4.30;;
61460;SDS011;47325;50.506;4.472;2023-04-03T05:30:22;6.20;;;4.50;;
61460;SDS011;47325;50.506;4.472;2023-04-03T05:36:06;6.30;;;4.90;;
61460;SDS011;47325;50.506;4.472;2023-04-03T05:41:52;7.00;;;4.60;;
61460;SDS011;47325;50.506;4.472;2023-04-03T05:47:36;6.80;;;4.40;;
61460;SDS011;47325;50.506;4.472;2023-04-03T05:53:21;5.70;;;4.50;;
61460;SDS011;47325;50.506;4.472;2023-04-03T05:59:05;7.50;;;4.50;;
61460;SDS011;47325;50.506;4.472;2023-04-03T06:04:50;5.80;;;4.50;;
61460;SDS011;47325;50.506;4.472;2023-04-03T06:10:35;8.00;;;5.20;;
61460;SDS011;47325;50.506;4.472;2023-04-03T06:16:22;9.60;;;6.00;;
61460;SDS011;47325;50.506;4.472;2023-04-03T06:22:09;11.40;;;7.10;;
61460;SDS011;47325;50.506;4.472;2023-04-03T06:27:53;12.30;;;7.50;;
61460;SDS011;47325;50.506;4.472;2023-04-03T06:33:37;11.80;;;7.30;;
61460;SDS011;47325;50.506;4.472;2023-04-03T06:39:22;11.30;;;7.40;;
61460;SDS011;47325;50.506;4.472;2023-04-03T06:45:07;11.50;;;7.30;;
61460;SDS011;47325;50.506;4.472;2023-04-03T06:50:51;13.30;;;7.30;;
61460;SDS011;47325;50.506;4.472;2023-04-03T06:56:36;14.90;;;7.10;;
61460;SDS011;47325;50.506;4.472;2023-04-03T07:02:20;13.30;;;7.70;;
61460;SDS011;47325;50.506;4.472;2023-04-03T07:08:05;13.90;;;8.20;;
61460;SDS011;47325;50.506;4.472;2023-04-03T07:13:49;11.10;;;7.00;;
61460;SDS011;47325;50.506;4.472;2023-04-03T07:19:33;9.50;;;6.40;;
61460;SDS011;47325;50.506;4.472;2023-04-03T07:25:17;11.00;;;6.60;;
61460;SDS011;47325;50.506;4.472;2023-04-03T07:31:03;15.20;;;6.90;;
61460;SDS011;47325;50.506;4.472;2023-04-03T07:36:47;13.90;;;7.00;;
61460;SDS011;47325;50.506;4.472;2023-04-03T07:42:31;13.60;;;7.60;;
61460;SDS011;47325;50.506;4.472;2023-04-03T07:48:16;12.10;;;7.00;;
61460;SDS011;47325;50.506;4.472;2023-04-03T07:54:00;13.00;;;6.80;;
61460;SDS011;47325;50.506;4.472;2023-04-03T07:59:44;11.90;;;6.60;;
61460;SDS011;47325;50.506;4.472;2023-04-03T08:05:28;14.50;;;6.60;;
61460;SDS011;47325;50.506;4.472;2023-04-03T08:11:13;11.50;;;6.40;;
61460;SDS011;47325;50.506;4.472;2023-04-03T08:16:57;9.50;;;5.80;;
61460;SDS011;47325;50.506;4.472;2023-04-03T08:22:48;10.50;;;6.40;;
61460;SDS011;47325;50.506;4.472;2023-04-03T08:28:32;8.20;;;5.70;;
61460;SDS011;47325;50.506;4.472;2023-04-03T08:34:16;7.60;;;5.60;;
61460;SDS011;47325;50.506;4.472;2023-04-03T08:40:00;10.50;;;5.90;;
61460;SDS011;47325;50.506;4.472;2023-04-03T08:45:47;8.30;;;5.40;;
61460;SDS011;47325;50.506;4.472;2023-04-03T08:51:32;8.90;;;5.30;;
61460;SDS011;47325;50.506;4.472;2023-04-03T08:57:16;10.10;;;5.20;;
61460;SDS011;47325;50.506;4.472;2023-04-03T09:03:01;7.50;;;5.00;;
61460;SDS011;47325;50.506;4.472;2023-04-03T09:08:46;8.60;;;4.50;;
61460;SDS011;47325;50.506;4.472;2023-04-03T09:14:35;7.60;;;4.40;;
61460;SDS011;47325;50.506;4.472;2023-04-03T09:20:22;9.70;;;4.10;;
61460;SDS011;47325;50.506;4.472;2023-04-03T09:26:09;6.90;;;4.00;;
61460;SDS011;47325;50.506;4.472;2023-04-03T09:31:57;6.60;;;3.80;;
61460;SDS011;47325;50.506;4.472;2023-04-03T09:37:43;6.50;;;3.50;;
61460;SDS011;47325;50.506;4.472;2023-04-03T09:43:29;4.90;;;3.00;;
61460;SDS011;47325;50.506;4.472;2023-04-03T09:49:13;6.20;;;3.30;;
61460;SDS011;47325;50.506;4.472;2023-04-03T09:54:57;7.30;;;3.20;;
61460;SDS011;47325;50.506;4.472;2023-04-03T10:00:46;4.40;;;2.70;;
61460;SDS011;47325;50.506;4.472;2023-04-03T10:06:36;5.40;;;2.60;;
61460;SDS011;47325;50.506;4.472;2023-04-03T10:12:21;4.10;;;2.60;;
61460;SDS011;47325;50.506;4.472;2023-04-03T10:18:06;4.70;;;2.20;;
61460;SDS011;47325;50.506;4.472;2023-04-03T10:24:07;4.70;;;2.40;;
61460;SDS011;47325;50.506;4.472;2023-04-03T10:29:55;6.00;;;2.40;;
61460;SDS011;47325;50.506;4.472;2023-04-03T10:35:47;4.10;;;1.90;;
61460;SDS011;47325;50.506;4.472;2023-04-03T10:41:37;5.90;;;2.20;;
61460;SDS011;47325;50.506;4.472;2023-04-03T10:47:24;6.60;;;2.00;;
61460;SDS011;47325;50.506;4.472;2023-04-03T10:53:13;5.40;;;2.00;;
61460;SDS011;47325;50.506;4.472;2023-04-03T10:59:02;5.90;;;2.20;;
61460;SDS011;47325;50.506;4.472;2023-04-03T11:04:50;4.90;;;1.90;;
61460;SDS011;47325;50.506;4.472;2023-04-03T11:10:35;4.20;;;2.00;;
61460;SDS011;47325;50.506;4.472;2023-04-03T11:16:23;6.90;;;1.90;;
61460;SDS011;47325;50.506;4.472;2023-04-03T11:22:13;4.20;;;1.90;;
61460;SDS011;47325;50.506;4.472;2023-04-03T11:28:01;4.60;;;2.00;;
61460;SDS011;47325;50.506;4.472;2023-04-03T11:33:49;5.30;;;1.80;;
61460;SDS011;47325;50.506;4.472;2023-04-03T11:39:35;5.40;;;1.90;;
61460;SDS011;47325;50.506;4.472;2023-04-03T11:45:36;4.70;;;1.80;;
61460;SDS011;47325;50.506;4.472;2023-04-03T12:03:55;4.40;;;2.00;;
61460;SDS011;47325;50.506;4.472;2023-04-03T12:09:27;6.00;;;1.70;;
61460;SDS011;47325;50.506;4.472;2023-04-03T12:21:10;4.50;;;1.80;;
61460;SDS011;47325;50.506;4.472;2023-04-03T12:27:01;4.80;;;1.80;;
61460;SDS011;47325;50.506;4.472;2023-04-03T12:32:56;3.30;;;1.40;;
61460;SDS011;47325;50.506;4.472;2023-04-03T12:38:58;4.40;;;1.30;;
61460;SDS011;47325;50.506;4.472;2023-04-03T12:44:47;5.00;;;1.90;;
61460;SDS011;47325;50.506;4.472;2023-04-03T12:50:36;11.60;;;5.50;;
61460;SDS011;47325;50.506;4.472;2023-04-03T12:56:25;16.90;;;6.30;;
61460;SDS011;47325;50.506;4.472;2023-04-03T13:02:19;8.40;;;3.80;;
61460;SDS011;47325;50.506;4.472;2023-04-03T13:08:04;5.50;;;2.90;;
61460;SDS011;47325;50.506;4.472;2023-04-03T13:13:58;6.10;;;2.70;;
61460;SDS011;47325;50.506;4.472;2023-04-03T13:19:42;7.40;;;2.60;;
61460;SDS011;47325;50.506;4.472;2023-04-03T13:25:28;6.20;;;2.40;;
61460;SDS011;47325;50.506;4.472;2023-04-03T13:31:19;7.30;;;2.20;;
61460;SDS011;47325;50.506;4.472;2023-04-03T13:37:04;4.00;;;2.10;;
61460;SDS011;47325;50.506;4.472;2023-04-03T13:42:58;4.80;;;1.80;;
61460;SDS011;47325;50.506;4.472;2023-04-03T13:48:41;4.90;;;1.90;;
61460;SDS011;47325;50.506;4.472;2023-04-03T13:54:28;5.60;;;1.90;;
61460;SDS011;47325;50.506;4.472;2023-04-03T14:06:20;5.70;;;1.80;;
61460;SDS011;47325;50.506;4.472;2023-04-03T14:12:05;4.60;;;1.50;;
61460;SDS011;47325;50.506;4.472;2023-04-03T14:18:06;3.30;;;1.60;;
61460;SDS011;47325;50.506;4.472;2023-04-03T14:23:50;3.40;;;1.50;;
61460;SDS011;47325;50.506;4.472;2023-04-03T14:29:35;5.30;;;1.80;;
61460;SDS011;47325;50.506;4.472;2023-04-03T14:35:19;3.00;;;1.50;;
61460;SDS011;47325;50.506;4.472;2023-04-03T14:41:03;3.30;;;1.50;;
61460;SDS011;47325;50.506;4.472;2023-04-03T14:46:58;3.30;;;1.40;;
61460;SDS011;47325;50.506;4.472;2023-04-03T14:52:43;4.60;;;1.30;;
61460;SDS011;47325;50.506;4.472;2023-04-03T14:58:27;3.20;;;1.30;;
61460;SDS011;47325;50.506;4.472;2023-04-03T15:04:14;3.10;;;1.40;;
61460;SDS011;47325;50.506;4.472;2023-04-03T15:10:00;3.80;;;1.40;;
61460;SDS011;47325;50.506;4.472;2023-04-03T15:15:45;3.60;;;1.40;;
61460;SDS011;47325;50.506;4.472;2023-04-03T15:21:29;2.80;;;1.30;;
61460;SDS011;47325;50.506;4.472;2023-04-03T15:27:14;2.90;;;1.20;;
61460;SDS011;47325;50.506;4.472;2023-04-03T15:32:58;2.70;;;1.30;;
61460;SDS011;47325;50.506;4.472;2023-04-03T15:38:42;5.30;;;1.40;;
61460;SDS011;47325;50.506;4.472;2023-04-03T15:44:26;3.30;;;1.40;;
61460;SDS011;47325;50.506;4.472;2023-04-03T15:50:11;3.40;;;1.30;;
61460;SDS011;47325;50.506;4.472;2023-04-03T15:55:55;3.00;;;1.30;;
61460;SDS011;47325;50.506;4.472;2023-04-03T16:01:39;4.10;;;1.30;;
61460;SDS011;47325;50.506;4.472;2023-04-03T16:07:24;3.80;;;1.40;;
61460;SDS011;47325;50.506;4.472;2023-04-03T16:13:09;3.40;;;1.10;;
61460;SDS011;47325;50.506;4.472;2023-04-03T16:18:53;3.80;;;1.20;;
61460;SDS011;47325;50.506;4.472;2023-04-03T16:24:37;3.80;;;1.20;;
61460;SDS011;47325;50.506;4.472;2023-04-03T16:30:22;3.60;;;1.10;;
61460;SDS011;47325;50.506;4.472;2023-04-03T16:36:06;4.50;;;1.30;;
61460;SDS011;47325;50.506;4.472;2023-04-03T16:41:50;4.80;;;1.40;;
61460;SDS011;47325;50.506;4.472;2023-04-03T16:47:34;3.20;;;1.20;;
61460;SDS011;47325;50.506;4.472;2023-04-03T16:53:18;4.20;;;1.20;;
61460;SDS011;47325;50.506;4.472;2023-04-03T16:59:03;3.50;;;1.20;;
61460;SDS011;47325;50.506;4.472;2023-04-03T17:04:47;3.50;;;1.30;;
61460;SDS011;47325;50.506;4.472;2023-04-03T17:10:33;4.70;;;1.30;;
61460;SDS011;47325;50.506;4.472;2023-04-03T17:16:17;4.50;;;1.60;;
61460;SDS011;47325;50.506;4.472;2023-04-03T17:22:01;4.70;;;1.60;;
61460;SDS011;47325;50.506;4.472;2023-04-03T17:27:45;7.40;;;2.00;;
61460;SDS011;47325;50.506;4.472;2023-04-03T17:33:29;5.50;;;1.70;;
61460;SDS011;47325;50.506;4.472;2023-04-03T17:39:15;4.10;;;1.30;;
61460;SDS011;47325;50.506;4.472;2023-04-03T17:44:59;3.90;;;1.40;;
61460;SDS011;47325;50.506;4.472;2023-04-03T17:50:43;4.90;;;1.80;;
61460;SDS011;47325;50.506;4.472;2023-04-03T17:56:27;4.30;;;1.50;;
61460;SDS011;47325;50.506;4.472;2023-04-03T18:02:11;4.30;;;1.60;;
61460;SDS011;47325;50.506;4.472;2023-04-03T18:07:55;5.30;;;1.70;;
61460;SDS011;47325;50.506;4.472;2023-04-03T18:13:41;3.10;;;1.70;;
61460;SDS011;47325;50.506;4.472;2023-04-03T18:19:25;3.40;;;1.50;;
61460;SDS011;47325;50.506;4.472;2023-04-03T18:25:12;2.20;;;1.40;;
61460;SDS011;47325;50.506;4.472;2023-04-03T18:30:57;2.80;;;1.50;;
61460;SDS011;47325;50.506;4.472;2023-04-03T18:36:41;4.20;;;1.40;;
61460;SDS011;47325;50.506;4.472;2023-04-03T18:42:25;3.60;;;1.50;;
61460;SDS011;47325;50.506;4.472;2023-04-03T18:48:10;3.80;;;1.60;;
61460;SDS011;47325;50.506;4.472;2023-04-03T18:53:55;4.60;;;1.50;;
61460;SDS011;47325;50.506;4.472;2023-04-03T18:59:39;6.10;;;1.50;;
61460;SDS011;47325;50.506;4.472;2023-04-03T19:05:23;2.40;;;1.50;;
61460;SDS011;47325;50.506;4.472;2023-04-03T19:11:07;2.90;;;1.60;;
61460;SDS011;47325;50.506;4.472;2023-04-03T19:16:52;3.00;;;1.50;;
61460;SDS011;47325;50.506;4.472;2023-04-03T19:22:36;2.50;;;1.40;;
61460;SDS011;47325;50.506;4.472;2023-04-03T19:28:20;4.50;;;1.70;;
61460;SDS011;47325;50.506;4.472;2023-04-03T19:34:05;3.60;;;1.50;;
61460;SDS011;47325;50.506;4.472;2023-04-03T19:39:49;2.50;;;1.50;;
61460;SDS011;47325;50.506;4.472;2023-04-03T19:45:33;3.80;;;1.40;;
61460;SDS011;47325;50.506;4.472;2023-04-03T19:51:17;2.60;;;1.50;;
61460;SDS011;47325;50.506;4.472;2023-04-03T19:57:01;3.00;;;1.50;;
61460;SDS011;47325;50.506;4.472;2023-04-03T20:02:45;3.10;;;1.50;;
61460;SDS011;47325;50.506;4.472;2023-04-03T20:08:29;2.90;;;1.50;;
61460;SDS011;47325;50.506;4.472;2023-04-03T20:14:13;2.50;;;1.60;;
61460;SDS011;47325;50.506;4.472;2023-04-03T20:19:57;2.80;;;1.50;;
61460;SDS011;47325;50.506;4.472;2023-04-03T20:25:44;3.50;;;1.70;;
61460;SDS011;47325;50.506;4.472;2023-04-03T20:31:48;2.60;;;1.70;;
61460;SDS011;47325;50.506;4.472;2023-04-03T20:37:32;3.20;;;1.50;;
61460;SDS011;47325;50.506;4.472;2023-04-03T20:43:16;3.70;;;1.70;;
61460;SDS011;47325;50.506;4.472;2023-04-03T20:49:01;4.00;;;1.50;;
61460;SDS011;47325;50.506;4.472;2023-04-03T20:54:45;3.40;;;1.80;;
61460;SDS011;47325;50.506;4.472;2023-04-03T21:00:30;3.20;;;1.70;;
61460;SDS011;47325;50.506;4.472;2023-04-03T21:24:05;4.10;;;1.60;;
61460;SDS011;47325;50.506;4.472;2023-04-03T21:29:50;3.10;;;1.60;;
61460;SDS011;47325;50.506;4.472;2023-04-03T21:35:34;4.50;;;1.70;;
61460;SDS011;47325;50.506;4.472;2023-04-03T21:41:18;2.90;;;1.60;;
61460;SDS011;47325;50.506;4.472;2023-04-03T21:47:01;2.30;;;1.50;;
61460;SDS011;47325;50.506;4.472;2023-04-03T21:52:45;3.40;;;1.80;;
61460;SDS011;47325;50.506;4.472;2023-04-03T21:58:30;3.00;;;1.80;;
61460;SDS011;47325;50.506;4.472;2023-04-03T22:04:15;3.40;;;1.70;;
61460;SDS011;47325;50.506;4.472;2023-04-03T22:09:59;3.50;;;1.80;;
61460;SDS011;47325;50.506;4.472;2023-04-03T22:15:45;4.40;;;1.80;;
61460;SDS011;47325;50.506;4.472;2023-04-03T22:21:29;3.20;;;1.80;;
61460;SDS011;47325;50.506;4.472;2023-04-03T22:27:13;3.20;;;1.70;;
61460;SDS011;47325;50.506;4.472;2023-04-03T22:32:57;3.10;;;1.80;;
61460;SDS011;47325;50.506;4.472;2023-04-03T22:38:41;3.40;;;2.20;;
61460;SDS011;47325;50.506;4.472;2023-04-03T22:44:25;2.40;;;1.80;;
61460;SDS011;47325;50.506;4.472;2023-04-03T22:50:18;2.90;;;2.00;;
61460;SDS011;47325;50.506;4.472;2023-04-03T22:56:03;3.30;;;1.80;;
61460;SDS011;47325;50.506;4.472;2023-04-03T23:01:47;4.60;;;2.10;;
61460;SDS011;47325;50.506;4.472;2023-04-03T23:07:31;3.40;;;2.10;;
61460;SDS011;47325;50.506;4.472;2023-04-03T23:13:15;3.10;;;1.90;;
61460;SDS011;47325;50.506;4.472;2023-04-03T23:19:00;2.80;;;1.80;;
61460;SDS011;47325;50.506;4.472;2023-04-03T23:24:49;3.10;;;1.90;;
61460;SDS011;47325;50.506;4.472;2023-04-03T23:30:33;3.00;;;1.60;;
61460;SDS011;47325;50.506;4.472;2023-04-03T23:36:17;4.10;;;1.70;;
61460;SDS011;47325;50.506;4.472;2023-04-03T23:42:01;2.70;;;1.80;;
61460;SDS011;47325;50.506;4.472;2023-04-03T23:47:46;3.10;;;2.00;;
61460;SDS011;47325;50.506;4.472;2023-04-03T23:53:32;2.90;;;2.00;;
61460;SDS011;47325;50.506;4.472;2023-04-03T23:59:16;2.80;;;1.90;;
